Time,TemperatureF,DewpointF,PressureIn,WindDirection,WindDirectionDegrees,WindSpeedMPH,WindSpeedGustMPH,Humidity,HourlyPrecipIn,Conditions,Clouds,dailyrainin,SoftwareType,DateUTC
2013-10-11 00:01:00,48.9,31.6,30.09,NE,45,2.7,2.7,51,0.00,,CLR,0.00,VWS V14.01,2013-10-11 04:01:00,
2013-10-11 00:02:00,49.1,31.8,30.09,NE,45,2.7,2.7,51,0.00,,CLR,0.00,VWS V14.01,2013-10-11 04:02:00,
2013-10-11 00:03:00,48.9,32.1,30.09,NE,45,2.7,2.7,52,0.00,,CLR,0.00,VWS V14.01,2013-10-11 04:03:00,
2013-10-11 00:05:00,49.1,31.8,30.09,NE,45,2.7,2.7,51,0.00,,CLR,0.00,VWS V14.01,2013-10-11 04:05:00,
2013-10-11 00:06:00,49.1,32.2,30.09,NE,45,2.7,2.7,52,0.00,,CLR,0.00,VWS V14.01,2013-10-11 04:06:00,
2013-10-11 00:10:00,49.1,31.8,30.09,NE,45,2.7,2.7,51,0.00,,CLR,0.00,VWS V14.01,2013-10-11 04:10:00,
2013-10-11 00:15:00,49.1,31.8,30.09,NE,45,2.7,2.7,51,0.00,,CLR,0.00,VWS V14.01,2013-10-11 04:15:00,
2013-10-11 00:20:00,48.4,31.1,30.09,NE,45,2.7,2.7,51,0.00,,CLR,0.00,VWS V14.01,2013-10-11 04:20:00,
2013-10-11 00:25:00,47.3,30.1,30.09,NE,45,2.7,2.7,51,0.00,,CLR,0.00,VWS V14.01,2013-10-11 04:25:00,
2013-10-11 00:30:00,46.6,29.4,30.09,NE,45,2.7,2.7,51,0.00,,CLR,0.00,VWS V14.01,2013-10-11 04:30:00,
2013-10-11 00:35:00,46.4,29.8,30.09,NE,45,2.7,2.7,52,0.00,,CLR,0.00,VWS V14.01,2013-10-11 04:35:00,
2013-10-11 00:40:00,45.9,29.7,30.09,NE,45,2.7,2.7,53,0.00,,CLR,0.00,VWS V14.01,2013-10-11 04:40:00,
2013-10-11 00:45:00,45.1,29.5,30.09,NE,45,2.7,2.7,54,0.00,,CLR,0.00,VWS V14.01,2013-10-11 04:45:00,
2013-10-11 00:50:00,44.6,29.0,30.09,NE,45,2.7,2.7,54,0.00,,CLR,0.00,VWS V14.01,2013-10-11 04:50:00,
2013-10-11 00:55:00,44.1,28.9,30.09,NE,45,2.7,2.7,55,0.00,,CLR,0.00,VWS V14.01,2013-10-11 04:55:00,
2013-10-11 01:00:00,44.1,29.8,30.09,NE,45,2.7,2.7,57,0.00,,CLR,0.00,VWS V14.01,2013-10-11 05:00:00,
2013-10-11 01:05:00,43.3,29.1,30.09,NE,45,2.7,2.7,57,0.00,,CLR,0.00,VWS V14.01,2013-10-11 05:05:00,
2013-10-11 01:10:00,43.0,29.2,30.09,NE,45,2.7,2.7,58,0.00,,CLR,0.00,VWS V14.01,2013-10-11 05:10:00,
2013-10-11 01:15:00,42.8,29.5,30.09,NE,45,2.7,2.7,59,0.00,,CLR,0.00,VWS V14.01,2013-10-11 05:15:00,
2013-10-11 01:20:00,42.4,29.1,30.09,NE,45,2.7,2.7,59,0.00,,CLR,0.00,VWS V14.01,2013-10-11 05:20:00,
2013-10-11 01:25:00,42.1,29.2,30.09,NE,45,2.7,2.7,60,0.00,,CLR,0.00,VWS V14.01,2013-10-11 05:25:00,
2013-10-11 01:30:00,41.7,29.3,30.09,NE,45,2.7,2.7,61,0.00,,CLR,0.00,VWS V14.01,2013-10-11 05:30:00,
2013-10-11 01:35:00,41.5,29.5,30.06,NE,45,2.7,2.7,62,0.00,,CLR,0.00,VWS V14.01,2013-10-11 05:35:00,
2013-10-11 01:40:00,41.4,29.3,30.06,NE,45,2.7,2.7,62,0.00,,CLR,0.00,VWS V14.01,2013-10-11 05:40:00,
2013-10-11 01:45:00,41.0,29.0,30.06,NE,45,2.7,2.7,62,0.00,,CLR,0.00,VWS V14.01,2013-10-11 05:45:00,
2013-10-11 01:50:00,40.8,29.2,30.09,NE,45,2.7,2.7,63,0.00,,CLR,0.00,VWS V14.01,2013-10-11 05:50:00,
2013-10-11 01:55:00,40.6,29.4,30.09,NE,45,2.7,2.7,64,0.00,,CLR,0.00,VWS V14.01,2013-10-11 05:55:00,
2013-10-11 02:00:00,40.5,29.3,30.09,NE,45,2.7,2.7,64,0.00,,CLR,0.00,VWS V14.01,2013-10-11 06:00:00,
2013-10-11 02:05:00,40.3,29.5,30.09,NE,45,2.7,2.7,65,0.00,,CLR,0.00,VWS V14.01,2013-10-11 06:05:00,
2013-10-11 02:10:00,40.3,29.5,30.09,NE,45,2.7,2.7,65,0.00,,CLR,0.00,VWS V14.01,2013-10-11 06:10:00,
2013-10-11 02:15:00,39.9,29.5,30.09,NE,45,2.7,2.7,66,0.00,,CLR,0.00,VWS V14.01,2013-10-11 06:15:00,
2013-10-11 02:20:00,39.9,29.5,30.06,NE,45,2.7,2.7,66,0.00,,CLR,0.00,VWS V14.01,2013-10-11 06:20:00,
2013-10-11 02:25:00,40.1,30.0,30.06,NE,45,2.7,2.7,67,0.00,,CLR,0.00,VWS V14.01,2013-10-11 06:25:00,
2013-10-11 02:30:00,40.5,30.8,30.06,NE,45,2.7,2.7,68,0.00,,CLR,0.00,VWS V14.01,2013-10-11 06:30:00,
2013-10-11 02:35:00,40.8,31.5,30.06,NE,45,2.7,2.7,69,0.00,,CLR,0.00,VWS V14.01,2013-10-11 06:35:00,
2013-10-11 02:40:00,41.2,31.8,30.06,NE,45,2.7,2.7,69,0.00,,CLR,0.00,VWS V14.01,2013-10-11 06:40:00,
2013-10-11 02:45:00,40.6,31.3,30.06,NE,45,2.7,2.7,69,0.00,,CLR,0.00,VWS V14.01,2013-10-11 06:45:00,
2013-10-11 02:50:00,40.5,31.1,30.06,NE,45,2.7,2.7,69,0.00,,CLR,0.00,VWS V14.01,2013-10-11 06:50:00,
2013-10-11 02:56:00,40.5,31.5,30.09,NE,45,2.7,2.7,70,0.00,,CLR,0.00,VWS V14.01,2013-10-11 06:56:00,
2013-10-11 03:01:00,39.9,30.9,30.09,NE,45,2.7,2.7,70,0.00,,CLR,0.00,VWS V14.01,2013-10-11 07:01:00,
2013-10-11 03:06:00,39.7,30.8,30.12,NE,45,2.7,2.7,70,0.00,,CLR,0.00,VWS V14.01,2013-10-11 07:06:00,
2013-10-11 03:11:00,39.4,30.4,30.12,NE,45,2.7,2.7,70,0.00,,CLR,0.00,VWS V14.01,2013-10-11 07:11:00,
2013-10-11 03:16:00,39.9,32.0,30.12,NE,45,2.7,2.7,73,0.00,,CLR,0.00,VWS V14.01,2013-10-11 07:16:00,
2013-10-11 03:21:00,39.4,31.1,30.09,NE,45,2.7,2.7,72,0.00,,CLR,0.00,VWS V14.01,2013-10-11 07:21:00,
2013-10-11 03:26:00,39.0,30.8,30.09,NE,45,2.7,2.7,72,0.00,,CLR,0.00,VWS V14.01,2013-10-11 07:26:00,
2013-10-11 03:31:00,39.0,30.8,30.09,NE,45,2.7,2.7,72,0.00,,CLR,0.00,VWS V14.01,2013-10-11 07:31:00,
2013-10-11 03:36:00,39.2,31.0,30.09,NE,45,2.7,2.7,72,0.00,,CLR,0.00,VWS V14.01,2013-10-11 07:36:00,
2013-10-11 03:41:00,39.4,31.5,30.09,NE,45,2.7,2.7,73,0.00,,CLR,0.00,VWS V14.01,2013-10-11 07:41:00,
2013-10-11 03:46:00,39.6,32.0,30.09,NE,45,2.7,2.7,74,0.00,,CLR,0.00,VWS V14.01,2013-10-11 07:46:00,
2013-10-11 03:51:00,39.2,31.6,30.09,NE,45,2.7,2.7,74,0.00,,CLR,0.00,VWS V14.01,2013-10-11 07:51:00,
2013-10-11 03:56:00,39.0,31.5,30.09,NE,45,2.7,2.7,74,0.00,,CLR,0.00,VWS V14.01,2013-10-11 07:56:00,
2013-10-11 04:01:00,38.8,31.3,30.09,NE,45,2.7,2.7,74,0.00,,CLR,0.00,VWS V14.01,2013-10-11 08:01:00,
2013-10-11 04:06:00,38.8,31.3,30.09,NE,45,2.7,2.7,74,0.00,,CLR,0.00,VWS V14.01,2013-10-11 08:06:00,
2013-10-11 04:11:00,39.2,32.0,30.09,NE,45,2.7,2.7,75,0.00,,CLR,0.00,VWS V14.01,2013-10-11 08:11:00,
2013-10-11 04:16:00,38.8,31.6,30.09,NE,45,2.7,2.7,75,0.00,,CLR,0.00,VWS V14.01,2013-10-11 08:16:00,
2013-10-11 04:21:00,38.7,31.8,30.12,NE,45,2.7,2.7,76,0.00,,CLR,0.00,VWS V14.01,2013-10-11 08:21:00,
2013-10-11 04:26:00,38.5,31.6,30.12,NE,45,2.7,2.7,76,0.00,,CLR,0.00,VWS V14.01,2013-10-11 08:26:00,
2013-10-11 04:31:00,38.3,31.1,30.12,NE,45,2.7,2.7,75,0.00,,CLR,0.00,VWS V14.01,2013-10-11 08:31:00,
2013-10-11 04:36:00,38.1,30.9,30.12,NE,45,2.7,2.7,75,0.00,,CLR,0.00,VWS V14.01,2013-10-11 08:36:00,
2013-10-11 04:41:00,38.3,31.4,30.12,NE,45,2.7,2.7,76,0.00,,CLR,0.00,VWS V14.01,2013-10-11 08:41:00,
2013-10-11 04:46:00,38.3,31.7,30.12,NE,45,2.7,2.7,77,0.00,,CLR,0.00,VWS V14.01,2013-10-11 08:46:00,
2013-10-11 04:51:00,38.1,31.2,30.12,NE,45,2.7,2.7,76,0.00,,CLR,0.00,VWS V14.01,2013-10-11 08:51:00,
2013-10-11 04:56:00,38.3,31.7,30.12,NE,45,2.7,2.7,77,0.00,,CLR,0.00,VWS V14.01,2013-10-11 08:56:00,
2013-10-11 05:01:00,38.5,32.2,30.12,NE,45,2.7,2.7,78,0.00,,CLR,0.00,VWS V14.01,2013-10-11 09:01:00,
2013-10-11 05:06:00,38.5,32.2,30.12,NE,45,2.7,2.7,78,0.00,,CLR,0.00,VWS V14.01,2013-10-11 09:06:00,
2013-10-11 05:11:00,38.3,32.0,30.12,NE,45,2.7,2.7,78,0.00,,CLR,0.00,VWS V14.01,2013-10-11 09:11:00,
2013-10-11 05:16:00,37.9,31.4,30.12,NE,45,2.7,2.7,77,0.00,,CLR,0.00,VWS V14.01,2013-10-11 09:16:00,
2013-10-11 05:21:00,37.6,30.7,30.12,NE,45,2.7,2.7,76,0.00,,CLR,0.00,VWS V14.01,2013-10-11 09:21:00,
2013-10-11 05:26:00,37.4,30.5,30.12,NE,45,2.7,2.7,76,0.00,,CLR,0.00,VWS V14.01,2013-10-11 09:26:00,
2013-10-11 05:31:00,37.2,30.7,30.12,NE,45,2.7,2.7,77,0.00,,CLR,0.00,VWS V14.01,2013-10-11 09:31:00,
2013-10-11 05:36:00,37.2,30.7,30.12,NE,45,2.7,2.7,77,0.00,,CLR,0.00,VWS V14.01,2013-10-11 09:36:00,
2013-10-11 05:41:00,37.6,31.0,30.12,NE,45,2.7,2.7,77,0.00,,CLR,0.00,VWS V14.01,2013-10-11 09:41:00,
2013-10-11 05:46:00,37.8,31.5,30.12,NE,45,2.7,2.7,78,0.00,,CLR,0.00,VWS V14.01,2013-10-11 09:46:00,
2013-10-11 05:51:00,37.6,31.4,30.15,NE,45,2.7,2.7,78,0.00,,CLR,0.00,VWS V14.01,2013-10-11 09:51:00,
2013-10-11 05:56:00,37.9,32.0,30.15,NE,45,2.7,2.7,79,0.00,,CLR,0.00,VWS V14.01,2013-10-11 09:56:00,
2013-10-11 06:01:00,37.4,31.5,30.15,NE,45,2.7,2.7,79,0.00,,CLR,0.00,VWS V14.01,2013-10-11 10:01:00,
2013-10-11 06:06:00,37.2,31.3,30.15,NE,45,2.7,2.7,79,0.00,,CLR,0.00,VWS V14.01,2013-10-11 10:06:00,
2013-10-11 06:11:00,37.2,31.3,30.15,NE,45,2.7,2.7,79,0.00,,CLR,0.00,VWS V14.01,2013-10-11 10:11:00,
2013-10-11 06:16:00,37.2,31.3,30.15,NE,45,2.7,2.7,79,0.00,,CLR,0.00,VWS V14.01,2013-10-11 10:16:00,
2013-10-11 06:21:00,37.4,31.8,30.15,NE,45,2.7,2.7,80,0.00,,CLR,0.00,VWS V14.01,2013-10-11 10:21:00,
2013-10-11 06:26:00,36.9,31.0,30.15,NE,45,2.7,2.7,79,0.00,,CLR,0.00,VWS V14.01,2013-10-11 10:26:00,
2013-10-11 06:31:00,37.0,31.5,30.15,NE,45,2.7,2.7,80,0.00,,CLR,0.00,VWS V14.01,2013-10-11 10:31:00,
2013-10-11 06:36:00,37.4,32.1,30.15,NE,45,2.7,2.7,81,0.00,,CLR,0.00,VWS V14.01,2013-10-11 10:36:00,
2013-10-11 06:41:00,37.2,31.9,30.15,NE,45,2.7,2.7,81,0.00,,CLR,0.00,VWS V14.01,2013-10-11 10:41:00,
2013-10-11 06:46:00,37.0,31.8,30.15,NE,45,2.7,2.7,81,0.00,,CLR,0.00,VWS V14.01,2013-10-11 10:46:00,
2013-10-11 06:51:00,36.7,31.1,30.12,NE,45,2.7,2.7,80,0.00,,CLR,0.00,VWS V14.01,2013-10-11 10:51:00,
2013-10-11 06:56:00,36.1,30.3,30.12,NE,45,2.7,2.7,79,0.00,,CLR,0.00,VWS V14.01,2013-10-11 10:56:00,
2013-10-11 07:01:00,35.8,29.9,30.12,NE,45,2.7,2.7,79,0.00,,CLR,0.00,VWS V14.01,2013-10-11 11:01:00,
2013-10-11 07:06:00,35.6,29.7,30.15,NE,45,2.7,2.7,79,0.00,,CLR,0.00,VWS V14.01,2013-10-11 11:06:00,
2013-10-11 07:12:00,35.6,30.0,30.15,NE,45,2.7,2.7,80,0.00,,CLR,0.00,VWS V14.01,2013-10-11 11:12:00,
2013-10-11 07:17:00,35.6,30.0,30.15,NE,45,2.7,2.7,80,0.00,,CLR,0.00,VWS V14.01,2013-10-11 11:17:00,
2013-10-11 07:22:00,35.6,30.0,30.15,NE,45,2.7,2.7,80,0.00,,CLR,0.00,VWS V14.01,2013-10-11 11:22:00,
2013-10-11 07:27:00,35.6,30.0,30.15,NE,45,2.7,2.7,80,0.00,,CLR,0.00,VWS V14.01,2013-10-11 11:27:00,
2013-10-11 07:32:00,35.4,29.9,30.15,NE,45,2.7,2.7,80,0.00,,CLR,0.00,VWS V14.01,2013-10-11 11:32:00,
2013-10-11 07:37:00,35.2,29.7,30.15,NE,45,2.7,2.7,80,0.00,,CLR,0.00,VWS V14.01,2013-10-11 11:37:00,
2013-10-11 07:42:00,35.4,30.2,30.15,NE,45,2.7,2.7,81,0.00,,CLR,0.00,VWS V14.01,2013-10-11 11:42:00,
2013-10-11 07:47:00,35.6,30.4,30.15,NE,45,2.7,2.7,81,0.00,,CLR,0.00,VWS V14.01,2013-10-11 11:47:00,
2013-10-11 07:52:00,36.0,31.3,30.15,NE,45,2.7,2.7,83,0.00,,CLR,0.00,VWS V14.01,2013-10-11 11:52:00,
2013-10-11 07:57:00,35.8,31.1,30.15,NE,45,2.7,2.7,83,0.00,,CLR,0.00,VWS V14.01,2013-10-11 11:57:00,
2013-10-11 08:02:00,36.0,31.3,30.15,NE,45,2.7,2.7,83,0.00,,CLR,0.00,VWS V14.01,2013-10-11 12:02:00,
2013-10-11 08:07:00,36.5,32.1,30.15,NE,45,2.7,2.7,84,0.00,,CLR,0.00,VWS V14.01,2013-10-11 12:07:00,
2013-10-11 08:12:00,37.0,32.7,30.15,NE,45,2.7,2.7,84,0.00,,CLR,0.00,VWS V14.01,2013-10-11 12:12:00,
2013-10-11 08:17:00,37.4,32.7,30.15,NE,45,2.7,2.7,83,0.00,,CLR,0.00,VWS V14.01,2013-10-11 12:17:00,
2013-10-11 08:22:00,37.6,32.9,30.18,NE,45,2.7,2.7,83,0.00,,CLR,0.00,VWS V14.01,2013-10-11 12:22:00,
2013-10-11 08:27:00,38.1,33.7,30.18,NE,45,2.7,2.7,84,0.00,,CLR,0.00,VWS V14.01,2013-10-11 12:27:00,
2013-10-11 08:32:00,39.4,35.0,30.18,NE,45,2.7,2.7,84,0.00,,CLR,0.00,VWS V14.01,2013-10-11 12:32:00,
2013-10-11 08:37:00,42.8,38.6,30.18,NE,45,2.7,2.7,85,0.00,,CLR,0.00,VWS V14.01,2013-10-11 12:37:00,
2013-10-11 08:42:00,45.0,41.0,30.18,NE,45,2.7,2.7,86,0.00,,CLR,0.00,VWS V14.01,2013-10-11 12:42:00,
2013-10-11 08:47:00,46.8,42.8,30.18,NE,45,2.7,2.7,86,0.00,,CLR,0.00,VWS V14.01,2013-10-11 12:47:00,
2013-10-11 08:52:00,48.0,44.3,30.15,NE,45,2.7,2.7,87,0.00,,CLR,0.00,VWS V14.01,2013-10-11 12:52:00,
2013-10-11 08:57:00,49.5,45.5,30.15,NE,45,2.7,2.7,86,0.00,,CLR,0.00,VWS V14.01,2013-10-11 12:57:00,
2013-10-11 09:02:00,50.7,46.1,30.15,NE,45,2.7,2.7,84,0.00,,CLR,0.00,VWS V14.01,2013-10-11 13:02:00,
2013-10-11 09:07:00,51.8,46.5,30.18,NE,45,2.7,2.7,82,0.00,,CLR,0.00,VWS V14.01,2013-10-11 13:07:00,
2013-10-11 09:12:00,53.1,47.1,30.18,NE,45,2.7,2.7,80,0.00,,CLR,0.00,VWS V14.01,2013-10-11 13:12:00,
2013-10-11 09:17:00,54.3,46.2,30.18,NE,45,2.7,2.7,74,0.00,,CLR,0.00,VWS V14.01,2013-10-11 13:17:00,
2013-10-11 09:22:00,55.8,47.2,30.18,NE,45,2.7,2.7,73,0.00,,CLR,0.00,VWS V14.01,2013-10-11 13:22:00,
2013-10-11 09:27:00,56.7,47.8,30.18,NE,45,2.7,2.7,72,0.00,,CLR,0.00,VWS V14.01,2013-10-11 13:27:00,
2013-10-11 09:32:00,57.2,47.1,30.18,NE,45,2.7,2.7,69,0.00,,CLR,0.00,VWS V14.01,2013-10-11 13:32:00,
2013-10-11 09:37:00,58.3,46.2,30.15,NE,45,2.7,2.7,64,0.00,,CLR,0.00,VWS V14.01,2013-10-11 13:37:00,
2013-10-11 09:42:00,59.0,46.0,30.15,NE,45,2.7,2.7,62,0.00,,CLR,0.00,VWS V14.01,2013-10-11 13:42:00,
2013-10-11 09:47:00,59.5,43.8,30.15,NE,45,2.7,2.7,56,0.00,,CLR,0.00,VWS V14.01,2013-10-11 13:47:00,
2013-10-11 09:52:00,60.1,41.4,30.18,NE,45,2.7,2.7,50,0.00,,CLR,0.00,VWS V14.01,2013-10-11 13:52:00,
2013-10-11 09:57:00,60.6,40.3,30.18,NE,45,2.7,2.7,47,0.00,,CLR,0.00,VWS V14.01,2013-10-11 13:57:00,
2013-10-11 10:02:00,60.8,39.9,30.18,NE,45,2.7,2.7,46,0.00,,CLR,0.00,VWS V14.01,2013-10-11 14:02:00,
2013-10-11 10:07:00,62.2,40.7,30.18,SW,225,2.7,422.7,45,0.00,,CLR,0.00,VWS V14.01,2013-10-11 14:07:00,
2013-10-11 10:12:00,63.0,40.1,30.18,SW,225,2.7,422.7,43,0.00,,CLR,0.00,VWS V14.01,2013-10-11 14:12:00,
2013-10-11 10:18:00,63.7,40.2,30.18,SW,225,2.7,422.7,42,0.00,,CLR,0.00,VWS V14.01,2013-10-11 14:18:00,
2013-10-11 10:23:00,64.4,39.6,30.15,SW,225,2.7,422.7,40,0.00,,CLR,0.00,VWS V14.01,2013-10-11 14:23:00,
2013-10-11 10:28:00,65.7,40.7,30.15,SW,225,2.7,422.7,40,0.00,,CLR,0.00,VWS V14.01,2013-10-11 14:28:00,
2013-10-11 10:33:00,66.6,40.2,30.15,SW,225,2.7,422.7,38,0.00,,CLR,0.00,VWS V14.01,2013-10-11 14:33:00,
2013-10-11 10:38:00,67.1,39.3,30.18,SW,225,2.7,422.7,36,0.00,,CLR,0.00,VWS V14.01,2013-10-11 14:38:00,
2013-10-11 10:43:00,68.2,40.2,30.18,SW,225,2.7,422.7,36,0.00,,CLR,0.00,VWS V14.01,2013-10-11 14:43:00,
2013-10-11 10:48:00,67.6,39.0,30.18,SW,225,2.7,422.7,35,0.00,,CLR,0.00,VWS V14.01,2013-10-11 14:48:00,
2013-10-11 10:53:00,69.4,39.9,30.15,SW,225,2.7,422.7,34,0.00,,CLR,0.00,VWS V14.01,2013-10-11 14:53:00,
2013-10-11 10:58:00,69.6,39.3,30.15,SW,225,2.7,422.7,33,0.00,,CLR,0.00,VWS V14.01,2013-10-11 14:58:00,
2013-10-11 11:00:00,70.0,39.6,30.15,SW,225,2.7,422.7,33,0.00,,CLR,0.00,VWS V14.01,2013-10-11 15:00:00,
2013-10-11 11:03:00,70.0,38.8,30.15,SW,225,2.7,422.7,32,0.00,,CLR,0.00,VWS V14.01,2013-10-11 15:03:00,
2013-10-11 11:08:00,70.5,40.1,30.15,SW,225,2.7,422.7,33,0.00,,CLR,0.00,VWS V14.01,2013-10-11 15:08:00,
2013-10-11 11:13:00,71.1,40.5,30.15,SW,225,2.7,422.7,33,0.00,,CLR,0.00,VWS V14.01,2013-10-11 15:13:00,
2013-10-11 11:18:00,72.0,39.7,30.15,SW,225,2.7,422.7,31,0.00,,CLR,0.00,VWS V14.01,2013-10-11 15:18:00,
2013-10-11 11:23:00,72.5,40.2,30.15,SW,225,2.7,422.7,31,0.00,,CLR,0.00,VWS V14.01,2013-10-11 15:23:00,
2013-10-11 11:28:00,73.0,38.9,30.15,SW,225,2.7,422.7,29,0.00,,CLR,0.00,VWS V14.01,2013-10-11 15:28:00,
2013-10-11 11:33:00,73.4,37.4,30.15,SW,225,2.7,422.7,27,0.00,,CLR,0.00,VWS V14.01,2013-10-11 15:33:00,
2013-10-11 11:38:00,73.6,37.6,30.15,SW,225,2.7,422.7,27,0.00,,CLR,0.00,VWS V14.01,2013-10-11 15:38:00,
2013-10-11 11:43:00,74.1,37.1,30.15,SW,225,2.7,422.7,26,0.00,,CLR,0.00,VWS V14.01,2013-10-11 15:43:00,
2013-10-11 11:48:00,72.5,34.7,30.15,SW,225,2.7,422.7,25,0.00,,CLR,0.00,VWS V14.01,2013-10-11 15:48:00,
2013-10-11 11:53:00,72.9,36.0,30.12,SW,225,2.7,422.7,26,0.00,,CLR,0.00,VWS V14.01,2013-10-11 15:53:00,
2013-10-11 11:58:00,72.7,34.9,30.12,SW,225,2.7,422.7,25,0.00,,CLR,0.00,VWS V14.01,2013-10-11 15:58:00,
2013-10-11 12:03:00,72.9,36.0,30.12,SW,225,2.7,422.7,26,0.00,,CLR,0.00,VWS V14.01,2013-10-11 16:03:00,
2013-10-11 12:08:00,72.3,34.6,30.12,SW,225,2.7,422.7,25,0.00,,CLR,0.00,VWS V14.01,2013-10-11 16:08:00,
2013-10-11 12:13:00,72.0,31.1,30.12,SW,225,2.7,422.7,22,0.00,,CLR,0.00,VWS V14.01,2013-10-11 16:13:00,
2013-10-11 12:18:00,72.3,32.5,30.12,SW,225,2.7,422.7,23,0.00,,CLR,0.00,VWS V14.01,2013-10-11 16:18:00,
2013-10-11 12:23:00,71.4,31.7,30.09,SW,225,2.7,422.7,23,0.00,,CLR,0.00,VWS V14.01,2013-10-11 16:23:00,
2013-10-11 12:28:00,71.8,30.9,30.09,SW,225,2.7,422.7,22,0.00,,CLR,0.00,VWS V14.01,2013-10-11 16:28:00,
2013-10-11 12:33:00,72.0,31.1,30.09,SW,225,2.7,422.7,22,0.00,,CLR,0.00,VWS V14.01,2013-10-11 16:33:00,
2013-10-11 12:38:00,72.5,31.5,30.09,SW,225,2.7,422.7,22,0.00,,CLR,0.00,VWS V14.01,2013-10-11 16:38:00,
2013-10-11 12:43:00,73.0,32.0,30.09,SW,225,2.7,422.7,22,0.00,,CLR,0.00,VWS V14.01,2013-10-11 16:43:00,
2013-10-11 12:48:00,72.9,30.7,30.09,SW,225,2.7,422.7,21,0.00,,CLR,0.00,VWS V14.01,2013-10-11 16:48:00,
2013-10-11 12:53:00,73.8,32.6,30.09,SW,225,2.7,422.7,22,0.00,,CLR,0.00,VWS V14.01,2013-10-11 16:53:00,
2013-10-11 12:58:00,73.2,28.5,30.09,SW,225,2.7,422.7,19,0.00,,CLR,0.00,VWS V14.01,2013-10-11 16:58:00,
2013-10-11 13:00:00,73.2,28.5,30.09,SW,225,2.7,422.7,19,0.00,,CLR,0.00,VWS V14.01,2013-10-11 17:00:00,
2013-10-11 13:03:00,73.6,31.3,30.09,SW,225,2.7,422.7,21,0.00,,CLR,0.00,VWS V14.01,2013-10-11 17:03:00,
2013-10-11 13:08:00,73.8,27.6,30.09,SW,225,2.7,422.7,18,0.00,,CLR,0.00,VWS V14.01,2013-10-11 17:08:00,
2013-10-11 13:14:00,73.9,25.0,30.09,SW,225,2.7,422.7,16,0.00,,CLR,0.00,VWS V14.01,2013-10-11 17:14:00,
2013-10-11 13:19:00,74.3,28.1,30.09,SW,225,2.7,422.7,18,0.00,,CLR,0.00,VWS V14.01,2013-10-11 17:19:00,
2013-10-11 13:24:00,73.9,27.8,30.06,SW,225,2.7,422.7,18,0.00,,CLR,0.00,VWS V14.01,2013-10-11 17:24:00,
2013-10-11 13:29:00,74.7,28.4,30.06,SW,225,2.7,422.7,18,0.00,,CLR,0.00,VWS V14.01,2013-10-11 17:29:00,
2013-10-11 13:34:00,74.8,28.5,30.06,SW,225,2.7,422.7,18,0.00,,CLR,0.00,VWS V14.01,2013-10-11 17:34:00,
2013-10-11 13:39:00,76.1,29.6,30.09,SW,225,2.7,422.7,18,0.00,,CLR,0.00,VWS V14.01,2013-10-11 17:39:00,
2013-10-11 13:44:00,75.9,29.4,30.09,SW,225,2.7,422.7,18,0.00,,CLR,0.00,VWS V14.01,2013-10-11 17:44:00,
2013-10-11 13:49:00,76.1,29.6,30.09,SW,225,2.7,422.7,18,0.00,,CLR,0.00,VWS V14.01,2013-10-11 17:49:00,
2013-10-11 13:54:00,76.1,25.1,30.09,SW,225,2.7,422.7,15,0.00,,CLR,0.00,VWS V14.01,2013-10-11 17:54:00,
2013-10-11 13:59:00,76.3,25.3,30.09,SW,225,2.7,422.7,15,0.00,,CLR,0.00,VWS V14.01,2013-10-11 17:59:00,
2013-10-11 14:00:00,76.3,25.3,30.09,SW,225,2.7,422.7,15,0.00,,CLR,0.00,VWS V14.01,2013-10-11 18:00:00,
2013-10-11 14:04:00,76.1,25.1,30.09,SW,225,2.7,422.7,15,0.00,,CLR,0.00,VWS V14.01,2013-10-11 18:04:00,
2013-10-11 14:09:00,77.9,26.6,30.09,SW,225,2.7,422.7,15,0.00,,CLR,0.00,VWS V14.01,2013-10-11 18:09:00,
2013-10-11 14:14:00,78.1,26.7,30.09,SW,225,2.7,422.7,15,0.00,,CLR,0.00,VWS V14.01,2013-10-11 18:14:00,
2013-10-11 14:19:00,77.9,31.0,30.09,SW,225,2.7,422.7,18,0.00,,CLR,0.00,VWS V14.01,2013-10-11 18:19:00,
2013-10-11 14:24:00,78.3,26.9,30.09,SW,225,2.7,422.7,15,0.00,,CLR,0.00,VWS V14.01,2013-10-11 18:24:00,
2013-10-11 14:29:00,79.2,27.6,30.09,SW,225,2.7,422.7,15,0.00,,CLR,0.00,VWS V14.01,2013-10-11 18:29:00,
2013-10-11 14:34:00,79.7,31.1,30.06,SW,225,2.7,422.7,17,0.00,,CLR,0.00,VWS V14.01,2013-10-11 18:34:00,
2013-10-11 14:39:00,78.8,27.3,30.06,SW,225,2.7,422.7,15,0.00,,CLR,0.00,VWS V14.01,2013-10-11 18:39:00,
2013-10-11 14:44:00,78.8,27.3,30.06,SW,225,2.7,422.7,15,0.00,,CLR,0.00,VWS V14.01,2013-10-11 18:44:00,
2013-10-11 14:49:00,78.1,26.7,30.03,SW,225,2.7,422.7,15,0.00,,CLR,0.00,VWS V14.01,2013-10-11 18:49:00,
2013-10-11 14:54:00,79.0,27.4,30.03,SW,225,2.7,422.7,15,0.00,,CLR,0.00,VWS V14.01,2013-10-11 18:54:00,
2013-10-11 14:59:00,79.9,28.1,30.03,SW,225,2.7,422.7,15,0.00,,CLR,0.00,VWS V14.01,2013-10-11 18:59:00,
2013-10-11 15:00:00,79.9,28.1,30.03,SW,225,2.7,422.7,15,0.00,,CLR,0.00,VWS V14.01,2013-10-11 19:00:00,
2013-10-11 15:04:00,78.3,26.9,30.03,SW,225,2.7,422.7,15,0.00,,CLR,0.00,VWS V14.01,2013-10-11 19:04:00,
2013-10-11 15:09:00,78.8,27.3,30.03,SW,225,2.7,422.7,15,0.00,,CLR,0.00,VWS V14.01,2013-10-11 19:09:00,
2013-10-11 15:14:00,79.3,27.7,30.03,SW,225,2.7,422.7,15,0.00,,CLR,0.00,VWS V14.01,2013-10-11 19:14:00,
2013-10-11 15:19:00,79.9,28.1,30.06,SW,225,2.7,422.7,15,0.00,,CLR,0.00,VWS V14.01,2013-10-11 19:19:00,
2013-10-11 15:24:00,80.6,27.0,30.06,SW,225,2.7,422.7,14,0.00,,CLR,0.00,VWS V14.01,2013-10-11 19:24:00,
2013-10-11 15:29:00,80.4,28.6,30.06,SW,225,2.7,422.7,15,0.00,,CLR,0.00,VWS V14.01,2013-10-11 19:29:00,
2013-10-11 15:34:00,79.2,22.2,30.03,SW,225,2.7,422.7,12,0.00,,CLR,0.00,VWS V14.01,2013-10-11 19:34:00,
2013-10-11 15:39:00,78.6,23.7,30.03,SW,225,2.7,422.7,13,0.00,,CLR,0.00,VWS V14.01,2013-10-11 19:39:00,
2013-10-11 15:44:00,77.9,26.6,30.03,SW,225,2.7,422.7,15,0.00,,CLR,0.00,VWS V14.01,2013-10-11 19:44:00,
2013-10-11 15:49:00,78.3,26.9,30.03,SW,225,2.7,422.7,15,0.00,,CLR,0.00,VWS V14.01,2013-10-11 19:49:00,
2013-10-11 15:54:00,77.5,22.9,30.03,SW,225,2.7,422.7,13,0.00,,CLR,0.00,VWS V14.01,2013-10-11 19:54:00,
2013-10-11 15:59:00,78.3,26.9,30.03,SW,225,2.7,422.7,15,0.00,,CLR,0.00,VWS V14.01,2013-10-11 19:59:00,
2013-10-11 16:00:00,78.6,27.1,30.03,SW,225,2.7,422.7,15,0.00,,CLR,0.00,VWS V14.01,2013-10-11 20:00:00,
2013-10-11 16:05:00,79.0,27.4,30.03,SW,225,2.7,422.7,15,0.00,,CLR,0.00,VWS V14.01,2013-10-11 20:05:00,
2013-10-11 16:10:00,78.4,27.0,30.00,SW,225,2.7,422.7,15,0.00,,CLR,0.00,VWS V14.01,2013-10-11 20:10:00,
2013-10-11 16:15:00,78.6,23.7,30.00,NE,45,2.7,2.7,13,0.00,,CLR,0.00,VWS V14.01,2013-10-11 20:15:00,
2013-10-11 16:20:00,79.3,22.4,30.00,NE,45,2.7,2.7,12,0.00,,CLR,0.00,VWS V14.01,2013-10-11 20:20:00,
2013-10-11 16:25:00,79.0,27.4,30.00,NE,45,2.7,2.7,15,0.00,,CLR,0.00,VWS V14.01,2013-10-11 20:25:00,
2013-10-11 16:30:00,79.3,27.7,30.00,NE,45,2.7,2.7,15,0.00,,CLR,0.00,VWS V14.01,2013-10-11 20:30:00,
2013-10-11 16:35:00,78.6,23.7,30.00,NE,45,2.7,2.7,13,0.00,,CLR,0.00,VWS V14.01,2013-10-11 20:35:00,
2013-10-11 16:40:00,77.7,23.0,30.00,NE,45,2.7,2.7,13,0.00,,CLR,0.00,VWS V14.01,2013-10-11 20:40:00,
2013-10-11 16:45:00,78.3,26.9,30.00,NE,45,2.7,2.7,15,0.00,,CLR,0.00,VWS V14.01,2013-10-11 20:45:00,
2013-10-11 16:50:00,77.9,23.1,30.00,NE,45,2.7,2.7,13,0.00,,CLR,0.00,VWS V14.01,2013-10-11 20:50:00,
2013-10-11 16:55:00,77.0,22.4,30.00,NE,45,2.7,2.7,13,0.00,,CLR,0.00,VWS V14.01,2013-10-11 20:55:00,
2013-10-11 17:00:00,77.5,22.9,30.00,NE,45,2.7,2.7,13,0.00,,CLR,0.00,VWS V14.01,2013-10-11 21:00:00,
2013-10-11 22:55:00,78.1,23.3,30.03,NE,45,2.7,2.7,13,0.00,,CLR,0.00,VWS V14.01,2013-10-12 02:55:00,
2013-10-11 23:00:00,54.5,30.7,30.03,NE,45,2.7,2.7,40,0.00,,CLR,0.00,VWS V14.01,2013-10-12 03:00:00,
2013-10-11 23:05:00,54.9,31.0,30.06,NE,45,2.7,2.7,40,0.00,,CLR,0.00,VWS V14.01,2013-10-12 03:05:00,
2013-10-11 23:10:00,55.0,31.8,30.06,NE,45,2.7,2.7,41,0.00,,CLR,0.00,VWS V14.01,2013-10-12 03:10:00,
2013-10-11 23:15:00,55.2,33.1,30.06,NE,45,2.7,2.7,43,0.00,,CLR,0.00,VWS V14.01,2013-10-12 03:15:00,
2013-10-11 23:20:00,55.0,33.0,30.06,NE,45,2.7,2.7,43,0.00,,CLR,0.00,VWS V14.01,2013-10-12 03:20:00,
2013-10-11 23:25:00,54.9,32.8,30.06,NE,45,2.7,2.7,43,0.00,,CLR,0.00,VWS V14.01,2013-10-12 03:25:00,
2013-10-11 23:30:00,54.7,33.2,30.06,NE,45,2.7,2.7,44,0.00,,CLR,0.00,VWS V14.01,2013-10-12 03:30:00,
2013-10-11 23:35:00,54.5,33.0,30.06,NE,45,2.7,2.7,44,0.00,,CLR,0.00,VWS V14.01,2013-10-12 03:35:00,
2013-10-11 23:40:00,53.8,32.4,30.06,NE,45,2.7,2.7,44,0.00,,CLR,0.00,VWS V14.01,2013-10-12 03:40:00,
2013-10-11 23:45:00,53.8,32.4,30.06,NE,45,2.7,2.7,44,0.00,,CLR,0.00,VWS V14.01,2013-10-12 03:45:00,
2013-10-11 23:50:00,52.9,32.1,30.03,NE,45,2.7,2.7,45,0.00,,CLR,0.00,VWS V14.01,2013-10-12 03:50:00,
2013-10-11 23:55:00,52.7,32.5,30.03,NE,45,2.7,2.7,46,0.00,,CLR,0.00,VWS V14.01,2013-10-12 03:55:00,